createdAt,value
2022-12-31T00:01:42.080Z,12.78
2022-12-31T00:04:11.393Z,12.78
2022-12-31T00:06:40.865Z,12.77
2022-12-31T00:09:11.802Z,12.76
2022-12-31T00:11:41.560Z,12.53
2022-12-31T00:14:11.384Z,12.56
2022-12-31T00:16:43.229Z,12.56
2022-12-31T00:19:13.726Z,12.61
2022-12-31T00:21:44.806Z,12.62
2022-12-31T00:24:14.323Z,12.62
2022-12-31T00:26:43.664Z,12.61
2022-12-31T00:29:13.276Z,12.61
2022-12-31T00:31:43.260Z,12.57
2022-12-31T00:34:12.900Z,12.51
2022-12-31T00:36:43.807Z,12.47
2022-12-31T00:39:13.600Z,12.48
2022-12-31T00:41:44.964Z,12.57
2022-12-31T00:44:15.095Z,12.58
2022-12-31T00:49:13.196Z,12.54
2022-12-31T00:51:42.789Z,12.50
2022-12-31T00:54:12.203Z,12.43
2022-12-31T00:56:41.899Z,12.37
2022-12-31T00:59:11.687Z,12.41
2022-12-31T01:01:45.267Z,12.48
2022-12-31T01:04:24.137Z,12.47
2022-12-31T01:06:59.605Z,12.43
2022-12-31T01:09:34.422Z,12.36
2022-12-31T01:12:09.089Z,12.34
2022-12-31T01:14:39.735Z,12.58
2022-12-31T01:17:10.784Z,12.39
2022-12-31T01:19:40.592Z,12.38
2022-12-31T01:22:10.651Z,12.35
2022-12-31T01:24:40.864Z,12.32
2022-12-31T01:27:11.178Z,12.34
2022-12-31T01:29:41.333Z,12.35
2022-12-31T01:32:11.145Z,12.40
2022-12-31T01:34:41.416Z,12.39
2022-12-31T01:37:11.411Z,12.36
2022-12-31T01:39:41.107Z,12.43
2022-12-31T01:42:14.095Z,12.54
2022-12-31T01:44:43.934Z,12.49
2022-12-31T01:47:19.630Z,12.58
2022-12-31T01:49:55.041Z,12.58
2022-12-31T01:52:32.118Z,12.56
2022-12-31T01:55:08.219Z,12.65
2022-12-31T01:57:40.234Z,12.61
2022-12-31T02:00:11.939Z,12.57
2022-12-31T02:02:42.246Z,12.46
2022-12-31T02:05:44.511Z,12.61
2022-12-31T02:08:15.096Z,12.53
2022-12-31T02:10:45.580Z,12.54
2022-12-31T02:13:17.160Z,12.46
2022-12-31T02:16:08.782Z,12.65
2022-12-31T02:19:09.040Z,12.60
2022-12-31T02:21:59.977Z,12.76
2022-12-31T02:24:52.552Z,12.75
2022-12-31T02:27:31.697Z,12.74
2022-12-31T02:30:05.003Z,12.62
2022-12-31T02:33:02.890Z,12.76
2022-12-31T02:35:44.506Z,12.74
2022-12-31T02:38:21.070Z,12.68
2022-12-31T02:40:52.078Z,12.69
2022-12-31T02:43:22.678Z,12.64
2022-12-31T02:46:23.359Z,12.58
2022-12-31T02:49:11.848Z,12.79
2022-12-31T02:51:53.451Z,12.90
2022-12-31T02:54:42.406Z,12.82
2022-12-31T02:57:15.231Z,12.82
2022-12-31T03:00:18.933Z,12.98
2022-12-31T03:02:51.982Z,13.05
2022-12-31T03:05:26.463Z,13.07
2022-12-31T03:07:57.888Z,13.13
2022-12-31T03:10:29.059Z,13.15
2022-12-31T03:13:00.378Z,13.27
2022-12-31T03:15:33.610Z,13.18
2022-12-31T03:18:06.959Z,13.25
2022-12-31T03:21:07.478Z,13.40
2022-12-31T03:23:41.147Z,13.43
2022-12-31T03:26:14.212Z,13.43
2022-12-31T03:28:49.093Z,13.55
2022-12-31T03:31:19.670Z,13.57
2022-12-31T03:33:49.665Z,13.53
2022-12-31T03:36:19.910Z,13.56
2022-12-31T03:38:52.829Z,13.60
2022-12-31T03:41:22.947Z,13.72
2022-12-31T03:43:52.879Z,13.73
2022-12-31T03:46:23.360Z,13.86
2022-12-31T03:48:53.686Z,13.92
2022-12-31T03:51:23.532Z,13.85
2022-12-31T03:53:53.673Z,13.92
2022-12-31T03:56:23.726Z,13.77
2022-12-31T03:58:54.502Z,13.99
2022-12-31T04:01:25.689Z,14.12
2022-12-31T04:03:56.064Z,13.99
2022-12-31T04:06:26.158Z,14.21
2022-12-31T04:08:56.221Z,14.32
2022-12-31T04:11:26.137Z,14.26
2022-12-31T04:13:56.061Z,14.36
2022-12-31T04:16:26.644Z,14.43
2022-12-31T04:18:56.662Z,14.62
2022-12-31T04:21:33.071Z,14.63
2022-12-31T04:24:05.422Z,14.67
2022-12-31T04:26:36.774Z,14.80
2022-12-31T04:29:08.137Z,14.71
2022-12-31T04:31:38.453Z,14.85
2022-12-31T04:34:08.799Z,14.86
2022-12-31T04:36:38.634Z,15.01
2022-12-31T04:39:08.955Z,15.06
2022-12-31T04:41:39.165Z,15.12
2022-12-31T04:44:09.597Z,15.14
2022-12-31T04:46:40.128Z,15.31
2022-12-31T04:49:11.403Z,15.41
2022-12-31T04:51:41.515Z,15.46
2022-12-31T04:54:11.770Z,15.49
2022-12-31T04:56:41.819Z,15.53
2022-12-31T04:59:13.410Z,15.70
2022-12-31T05:01:43.705Z,15.68
2022-12-31T05:04:14.143Z,15.77
2022-12-31T05:06:44.324Z,15.75
2022-12-31T05:09:14.830Z,15.84
2022-12-31T05:11:44.855Z,15.94
2022-12-31T05:14:14.891Z,15.99
2022-12-31T05:16:44.727Z,16.12
2022-12-31T05:19:15.263Z,16.23
2022-12-31T05:22:05.447Z,16.29
2022-12-31T05:24:35.724Z,16.37
2022-12-31T05:27:06.501Z,16.41
2022-12-31T05:29:36.651Z,16.47
2022-12-31T05:32:06.312Z,16.57
2022-12-31T05:34:35.989Z,16.62
2022-12-31T05:37:05.537Z,16.59
2022-12-31T05:39:35.062Z,16.66
2022-12-31T05:42:04.802Z,16.75
2022-12-31T05:44:34.033Z,16.87
2022-12-31T05:47:03.581Z,16.96
2022-12-31T05:49:33.176Z,16.97
2022-12-31T05:52:02.670Z,17.16
2022-12-31T05:54:32.032Z,17.13
2022-12-31T05:57:01.930Z,17.26
2022-12-31T05:59:31.894Z,17.41
2022-12-31T06:02:01.883Z,17.42
2022-12-31T06:04:31.792Z,17.46
2022-12-31T06:07:01.117Z,17.43
2022-12-31T06:09:30.632Z,17.48
2022-12-31T06:12:00.053Z,17.50
2022-12-31T06:14:29.753Z,17.48
2022-12-31T06:16:59.357Z,17.71
2022-12-31T06:19:29.326Z,17.76
2022-12-31T06:21:58.755Z,17.76
2022-12-31T06:24:28.128Z,17.86
2022-12-31T06:26:57.756Z,17.91
2022-12-31T06:29:27.284Z,17.99
2022-12-31T06:31:56.837Z,18.15
2022-12-31T06:34:26.402Z,18.11
2022-12-31T06:36:55.731Z,18.10
2022-12-31T06:39:25.199Z,18.14
2022-12-31T06:41:54.661Z,18.17
2022-12-31T06:44:24.241Z,18.24
2022-12-31T06:46:53.691Z,18.26
2022-12-31T06:49:23.378Z,18.28
2022-12-31T06:51:52.630Z,18.34
2022-12-31T06:54:22.132Z,18.18
2022-12-31T06:56:52.387Z,18.45
2022-12-31T06:59:30.869Z,18.63
2022-12-31T07:02:07.657Z,18.72
2022-12-31T07:04:45.878Z,18.42
2022-12-31T07:07:22.877Z,18.78
2022-12-31T07:10:13.284Z,18.82
2022-12-31T07:13:20.550Z,18.82
2022-12-31T07:16:19.292Z,18.74
2022-12-31T07:18:49.098Z,18.92
2022-12-31T07:21:26.078Z,18.90
2022-12-31T07:23:55.826Z,18.95
2022-12-31T07:26:57.218Z,19.07
2022-12-31T07:29:43.633Z,18.99
2022-12-31T07:32:37.104Z,19.09
2022-12-31T07:35:32.916Z,19.12
2022-12-31T07:38:16.682Z,19.16
2022-12-31T07:41:07.299Z,19.11
2022-12-31T07:44:17.038Z,19.24
2022-12-31T07:46:58.782Z,19.28
2022-12-31T07:49:30.725Z,19.36
2022-12-31T07:52:00.908Z,19.28
2022-12-31T07:54:30.382Z,19.25
2022-12-31T07:56:59.944Z,19.31
2022-12-31T07:59:59.302Z,19.43
2022-12-31T08:02:37.587Z,19.39
2022-12-31T08:05:22.202Z,19.39
2022-12-31T08:08:18.509Z,19.52
2022-12-31T08:11:17.795Z,19.54
2022-12-31T08:13:48.436Z,19.50
2022-12-31T08:16:18.343Z,19.54
2022-12-31T08:18:48.463Z,19.52
2022-12-31T08:22:07.169Z,19.74
2022-12-31T08:24:44.005Z,19.58
2022-12-31T08:27:35.381Z,19.79
2022-12-31T08:30:10.795Z,19.69
2022-12-31T08:33:04.740Z,19.76
2022-12-31T08:36:07.247Z,19.85
2022-12-31T08:38:58.312Z,19.86
2022-12-31T08:41:54.145Z,19.90
2022-12-31T08:44:36.689Z,19.88
2022-12-31T08:47:15.114Z,19.97
2022-12-31T08:49:45.028Z,19.80
2022-12-31T08:52:24.999Z,19.92
2022-12-31T08:54:55.246Z,19.95
2022-12-31T08:57:47.599Z,20.05
2022-12-31T09:00:19.971Z,20.01
2022-12-31T09:02:55.465Z,19.99
2022-12-31T09:05:34.064Z,20.04
2022-12-31T09:08:24.723Z,20.03
2022-12-31T09:11:05.262Z,20.05
2022-12-31T09:14:06.284Z,20.07
2022-12-31T09:17:30.844Z,20.17
2022-12-31T09:20:00.745Z,20.11
2022-12-31T09:22:30.799Z,19.91
2022-12-31T09:25:01.008Z,19.94
2022-12-31T09:27:39.969Z,20.10
2022-12-31T09:30:14.981Z,20.18
2022-12-31T09:33:08.716Z,20.22
2022-12-31T09:35:46.324Z,20.08
2022-12-31T09:38:22.555Z,20.13
2022-12-31T09:41:17.971Z,20.12
2022-12-31T09:44:10.764Z,20.03
2022-12-31T09:47:33.275Z,20.11
2022-12-31T09:51:00.620Z,20.09
2022-12-31T09:53:35.994Z,19.90
2022-12-31T09:56:32.957Z,19.98
2022-12-31T09:59:23.839Z,19.95
2022-12-31T10:02:17.472Z,19.92
2022-12-31T10:04:54.630Z,19.97
2022-12-31T10:07:27.077Z,19.83
2022-12-31T10:10:23.376Z,19.95
2022-12-31T10:13:22.169Z,19.94
2022-12-31T10:16:16.349Z,19.93
2022-12-31T10:19:10.429Z,19.92
2022-12-31T10:21:55.023Z,19.96
2022-12-31T10:24:44.014Z,19.86
2022-12-31T10:27:35.202Z,19.85
2022-12-31T10:30:24.154Z,19.94
2022-12-31T10:33:08.954Z,19.78
2022-12-31T10:35:45.044Z,19.77
2022-12-31T10:38:32.556Z,19.78
2022-12-31T10:41:38.809Z,19.88
2022-12-31T10:44:36.024Z,19.85
2022-12-31T10:47:19.950Z,19.80
2022-12-31T10:50:19.443Z,19.85
2022-12-31T10:53:19.195Z,19.89
2022-12-31T10:56:25.158Z,19.76
2022-12-31T10:58:59.613Z,19.66
2022-12-31T11:01:52.068Z,19.71
2022-12-31T11:04:50.705Z,19.70
2022-12-31T11:07:41.703Z,19.60
2022-12-31T11:10:22.663Z,19.47
2022-12-31T11:13:00.327Z,19.60
2022-12-31T11:16:07.012Z,19.60
2022-12-31T11:19:17.745Z,19.60
2022-12-31T11:21:55.765Z,19.39
2022-12-31T11:24:49.314Z,19.51
2022-12-31T11:27:52.089Z,19.55
2022-12-31T11:30:28.874Z,19.46
2022-12-31T11:33:46.882Z,19.52
2022-12-31T11:36:45.394Z,19.40
2022-12-31T11:39:32.851Z,19.19
2022-12-31T11:42:14.027Z,19.28
2022-12-31T11:45:14.106Z,19.22
2022-12-31T11:51:33.169Z,19.17
2022-12-31T11:54:11.468Z,18.99
2022-12-31T11:56:45.685Z,18.98
2022-12-31T11:59:19.631Z,18.90
2022-12-31T12:02:29.114Z,18.88
2022-12-31T12:05:08.488Z,18.69
2022-12-31T12:07:40.405Z,18.60
2022-12-31T12:10:38.913Z,18.69
2022-12-31T12:13:22.452Z,18.67
2022-12-31T12:16:00.982Z,18.51
2022-12-31T12:18:49.332Z,18.55
2022-12-31T12:21:22.750Z,18.40
2022-12-31T12:24:01.483Z,18.41
2022-12-31T12:26:42.458Z,18.34
2022-12-31T12:29:24.541Z,18.35
2022-12-31T12:32:07.623Z,18.34
2022-12-31T12:34:44.465Z,18.21
2022-12-31T12:37:34.292Z,18.17
2022-12-31T12:40:07.317Z,18.11
2022-12-31T12:42:37.702Z,18.04
2022-12-31T12:45:15.659Z,17.95
2022-12-31T12:47:47.374Z,17.80
2022-12-31T12:50:23.088Z,17.79
2022-12-31T12:53:25.982Z,17.70
2022-12-31T12:56:08.900Z,17.50
2022-12-31T12:58:58.025Z,17.45
2022-12-31T13:01:31.598Z,17.33
2022-12-31T13:04:36.179Z,17.23
2022-12-31T13:07:19.319Z,17.16
2022-12-31T13:10:15.434Z,17.08
2022-12-31T13:13:25.951Z,17.01
2022-12-31T13:16:33.611Z,16.89
2022-12-31T13:19:32.726Z,16.86
2022-12-31T13:22:36.154Z,16.78
2022-12-31T13:25:21.862Z,16.72
2022-12-31T13:27:55.588Z,16.64
2022-12-31T13:30:37.537Z,16.66
2022-12-31T13:33:29.756Z,16.59
2022-12-31T13:36:08.922Z,16.53
2022-12-31T13:38:45.157Z,16.47
2022-12-31T13:41:39.493Z,16.46
2022-12-31T13:44:38.909Z,16.47
2022-12-31T13:47:16.327Z,16.43
2022-12-31T13:49:51.462Z,16.36
2022-12-31T13:52:36.383Z,16.34
2022-12-31T13:55:20.934Z,16.33
2022-12-31T13:57:55.342Z,16.24
2022-12-31T14:00:36.560Z,16.23
2022-12-31T14:03:14.747Z,16.21
2022-12-31T14:06:04.685Z,16.18
2022-12-31T14:08:34.012Z,15.97
2022-12-31T14:11:19.695Z,15.98
2022-12-31T14:14:06.179Z,16.03
2022-12-31T14:16:57.308Z,16.04
2022-12-31T14:19:41.441Z,15.98
2022-12-31T14:22:35.498Z,15.96
2022-12-31T14:25:12.066Z,15.85
2022-12-31T14:27:44.624Z,15.82
2022-12-31T14:30:22.835Z,15.86
2022-12-31T14:33:13.306Z,15.87
2022-12-31T14:35:54.509Z,15.82
2022-12-31T14:38:58.091Z,15.78
2022-12-31T14:41:57.025Z,15.74
2022-12-31T14:45:00.121Z,15.72
2022-12-31T14:47:55.664Z,15.66
2022-12-31T14:50:30.862Z,15.58
2022-12-31T14:53:09.589Z,15.56
2022-12-31T14:55:41.760Z,15.47
2022-12-31T14:58:31.886Z,15.52
2022-12-31T15:01:02.161Z,15.32
2022-12-31T15:03:41.225Z,15.39
2022-12-31T15:06:16.647Z,15.48
2022-12-31T15:09:19.400Z,15.46
2022-12-31T15:12:06.468Z,15.44
2022-12-31T15:15:05.675Z,15.42
2022-12-31T15:17:41.210Z,15.27
2022-12-31T15:20:21.710Z,15.36
2022-12-31T15:22:54.455Z,15.26
2022-12-31T15:25:40.047Z,15.31
2022-12-31T15:28:31.968Z,15.29
2022-12-31T15:31:21.116Z,15.18
2022-12-31T15:34:03.340Z,15.18
2022-12-31T15:36:34.130Z,15.17
2022-12-31T15:39:12.322Z,15.21
2022-12-31T15:42:18.749Z,15.11
2022-12-31T15:44:51.029Z,15.12
2022-12-31T15:47:38.428Z,15.12
2022-12-31T15:50:16.363Z,15.01
2022-12-31T15:52:57.647Z,15.04
2022-12-31T15:55:42.587Z,14.98
2022-12-31T15:58:17.025Z,14.93
2022-12-31T16:01:11.217Z,14.95
2022-12-31T16:03:46.305Z,14.90
2022-12-31T16:06:18.084Z,14.80
2022-12-31T16:08:50.991Z,14.78
2022-12-31T16:11:20.997Z,14.72
2022-12-31T16:13:53.699Z,14.72
2022-12-31T16:16:24.966Z,14.85
2022-12-31T16:18:55.810Z,14.70
2022-12-31T16:21:40.088Z,14.82
2022-12-31T16:24:37.444Z,14.83
2022-12-31T16:27:20.075Z,14.75
2022-12-31T16:29:56.006Z,14.72
2022-12-31T16:32:26.507Z,14.62
2022-12-31T16:34:55.884Z,14.57
2022-12-31T16:37:25.267Z,14.58
2022-12-31T16:39:57.602Z,14.63
2022-12-31T16:42:31.597Z,14.57
2022-12-31T16:45:20.924Z,14.65
2022-12-31T16:47:50.375Z,14.48
2022-12-31T16:50:22.553Z,14.53
2022-12-31T16:52:59.012Z,14.56
2022-12-31T16:55:31.705Z,14.61
2022-12-31T16:58:22.783Z,14.61
2022-12-31T17:00:53.682Z,14.49
2022-12-31T17:03:28.668Z,14.51
2022-12-31T17:06:16.346Z,14.49
2022-12-31T17:08:58.852Z,14.35
2022-12-31T17:11:54.547Z,14.51
2022-12-31T17:14:29.957Z,14.44
2022-12-31T17:17:09.881Z,14.43
2022-12-31T17:19:56.823Z,14.53
2022-12-31T17:22:36.768Z,14.51
2022-12-31T17:25:16.971Z,14.53
2022-12-31T17:27:56.002Z,14.51
2022-12-31T17:30:32.526Z,14.49
2022-12-31T17:33:02.858Z,14.39
2022-12-31T17:35:35.229Z,14.39
2022-12-31T17:38:19.698Z,14.42
2022-12-31T17:40:51.981Z,14.36
2022-12-31T17:43:22.658Z,14.47
2022-12-31T17:45:53.648Z,14.34
2022-12-31T17:48:28.676Z,14.31
2022-12-31T17:51:02.191Z,14.30
2022-12-31T17:53:31.870Z,14.25
2022-12-31T17:56:07.372Z,14.31
2022-12-31T17:58:46.307Z,14.34
2022-12-31T18:01:18.620Z,14.31
2022-12-31T18:03:49.111Z,14.26
2022-12-31T18:06:20.348Z,14.40
2022-12-31T18:08:50.500Z,14.43
2022-12-31T18:11:25.206Z,14.51
2022-12-31T18:13:55.990Z,14.52
2022-12-31T18:16:25.505Z,14.54
2022-12-31T18:18:59.443Z,14.64
2022-12-31T18:21:35.259Z,14.82
2022-12-31T18:24:06.096Z,14.76
2022-12-31T18:26:35.664Z,14.73
2022-12-31T18:29:18.635Z,14.89
2022-12-31T18:31:50.913Z,14.89
2022-12-31T18:34:20.555Z,14.91
2022-12-31T18:36:49.697Z,14.97
2022-12-31T18:39:18.910Z,14.97
2022-12-31T18:41:52.739Z,15.09
2022-12-31T18:44:21.908Z,15.07
2022-12-31T18:46:51.592Z,15.10
2022-12-31T18:49:23.489Z,15.30
2022-12-31T18:51:55.239Z,15.00
2022-12-31T18:54:24.579Z,15.04
2022-12-31T18:56:57.053Z,15.08
2022-12-31T18:59:26.763Z,15.01
2022-12-31T19:01:56.455Z,14.98
2022-12-31T19:04:28.301Z,14.86
2022-12-31T19:06:58.323Z,14.80
2022-12-31T19:12:17.154Z,14.64
2022-12-31T19:14:46.900Z,14.65
2022-12-31T19:17:15.948Z,14.59
2022-12-31T19:19:45.178Z,14.57
2022-12-31T19:22:17.371Z,14.59
2022-12-31T19:24:47.016Z,14.56
2022-12-31T19:27:16.290Z,14.64
2022-12-31T19:29:45.508Z,14.63
2022-12-31T19:32:15.062Z,14.59
2022-12-31T19:34:44.521Z,14.52
2022-12-31T19:37:17.260Z,14.58
2022-12-31T19:39:46.600Z,14.46
2022-12-31T19:42:17.370Z,14.54
2022-12-31T19:44:46.514Z,14.42
2022-12-31T19:47:15.595Z,14.37
2022-12-31T19:49:45.339Z,14.36
2022-12-31T19:52:15.131Z,14.30
2022-12-31T19:54:44.201Z,14.28
2022-12-31T19:57:13.692Z,14.25
2022-12-31T19:59:43.072Z,14.24
2022-12-31T20:02:12.418Z,14.21
2022-12-31T20:04:41.751Z,14.16
2022-12-31T20:07:11.251Z,14.09
2022-12-31T20:09:40.506Z,14.04
2022-12-31T20:12:09.864Z,14.09
2022-12-31T20:14:38.943Z,14.07
2022-12-31T20:17:08.151Z,14.07
2022-12-31T20:19:38.114Z,14.10
2022-12-31T20:22:07.884Z,14.13
2022-12-31T20:24:37.290Z,14.10
2022-12-31T20:27:12.192Z,14.14
2022-12-31T20:29:44.750Z,14.15
2022-12-31T20:32:13.876Z,14.16
2022-12-31T20:34:43.192Z,14.13
2022-12-31T20:37:12.709Z,14.09
2022-12-31T20:39:41.968Z,14.02
2022-12-31T20:42:11.055Z,14.00
2022-12-31T20:44:40.187Z,13.94
2022-12-31T20:47:09.791Z,13.97
2022-12-31T20:50:09.682Z,13.94
2022-12-31T20:52:28.451Z,13.91
2022-12-31T20:54:57.531Z,13.86
2022-12-31T20:57:33.180Z,13.86
2022-12-31T21:00:03.824Z,13.83
2022-12-31T21:02:41.658Z,13.80
2022-12-31T21:05:12.884Z,13.80
2022-12-31T21:07:42.226Z,13.78
2022-12-31T21:10:11.321Z,13.77
2022-12-31T21:12:49.091Z,13.72
2022-12-31T21:15:18.450Z,13.70
2022-12-31T21:17:48.392Z,13.69
2022-12-31T21:20:18.012Z,13.67
2022-12-31T21:22:47.091Z,13.60
2022-12-31T21:25:16.535Z,13.58
2022-12-31T21:27:45.428Z,13.55
2022-12-31T21:30:18.762Z,13.58
2022-12-31T21:32:49.781Z,13.50
2022-12-31T21:38:09.337Z,13.44
2022-12-31T21:40:38.787Z,13.43
2022-12-31T21:43:08.243Z,13.41
2022-12-31T21:45:37.571Z,13.41
2022-12-31T21:48:24.303Z,13.43
2022-12-31T21:51:05.567Z,13.46
2022-12-31T21:53:37.083Z,13.35
2022-12-31T21:56:10.437Z,13.35
2022-12-31T21:58:42.025Z,13.36
2022-12-31T22:01:39.985Z,13.42
2022-12-31T22:04:28.157Z,13.31
2022-12-31T22:06:58.698Z,13.34
2022-12-31T22:09:28.249Z,13.34
2022-12-31T22:11:57.272Z,13.29
2022-12-31T22:14:26.697Z,13.31
2022-12-31T22:16:55.941Z,13.28
2022-12-31T22:19:25.656Z,13.30
2022-12-31T22:21:55.098Z,13.32
2022-12-31T22:24:24.387Z,13.30
2022-12-31T22:26:56.628Z,13.27
2022-12-31T22:29:26.909Z,13.26
2022-12-31T22:32:01.017Z,13.26
2022-12-31T22:34:30.688Z,13.24
2022-12-31T22:37:08.911Z,13.22
2022-12-31T22:39:51.970Z,13.32
2022-12-31T22:42:21.190Z,13.22
2022-12-31T22:44:50.711Z,13.17
2022-12-31T22:47:19.547Z,13.11
2022-12-31T22:49:48.980Z,13.05
2022-12-31T22:52:17.859Z,13.06
2022-12-31T22:54:47.393Z,13.05
2022-12-31T22:57:20.217Z,13.00
2022-12-31T22:59:50.085Z,12.97
2022-12-31T23:02:19.366Z,12.92
2022-12-31T23:04:48.467Z,12.90
2022-12-31T23:07:18.014Z,12.91
2022-12-31T23:10:05.532Z,12.89
2022-12-31T23:12:34.718Z,12.90
2022-12-31T23:15:22.362Z,12.90
2022-12-31T23:18:09.960Z,12.85
2022-12-31T23:20:58.153Z,12.83
2022-12-31T23:23:27.388Z,12.74
2022-12-31T23:26:03.078Z,12.87
2022-12-31T23:28:32.238Z,12.78
2022-12-31T23:31:06.786Z,12.79
2022-12-31T23:33:36.419Z,12.75
2022-12-31T23:36:07.672Z,12.79
2022-12-31T23:38:36.912Z,12.70
2022-12-31T23:41:17.803Z,12.73
2022-12-31T23:43:47.466Z,12.59
2022-12-31T23:46:18.340Z,12.65
2022-12-31T23:48:47.711Z,12.60
2022-12-31T23:51:16.869Z,12.58
2022-12-31T23:53:46.078Z,12.56
2022-12-31T23:56:23.759Z,12.67
2022-12-31T23:58:58.069Z,12.70
